Bonds Corner, California
Current Conditions -  °F | °C
As of 8:52 PM on Sunday 21 Dec 2014 (Local Time) from MMML Reporting Station
Broken Clouds Broken Clouds  
Wind Chill: 55°   Ceiling: 20000
Heat Index: 55°   Visibility: 10mi
Dew Point: 46°   Wind: 5mph
Humidity: 72%   Direction: 330°NNW
Pressure: 30.07"   Gusts: NA
Location:  32.7753°N, 115.299°W
Report Text: MMML 220452Z 33004KT 10SM BKN200 13/08 A3007 RMK 8/008
Loading
Personal Weather Stations






























Interactive Weather Map New forecast layout! Learn more

10-Day Weather Forecast

Advertisements
Track Severe Weather on mobile